createdAt,value
2022-09-22T00:01:16.264Z,87.68
2022-09-22T00:03:46.472Z,87.64
2022-09-22T00:06:19.140Z,87.53
2022-09-22T00:08:53.288Z,87.76
2022-09-22T00:11:28.898Z,87.73
2022-09-22T00:14:11.299Z,88.03
2022-09-22T00:16:50.142Z,87.67
2022-09-22T00:19:24.304Z,87.85
2022-09-22T00:21:51.310Z,87.82
2022-09-22T00:24:20.111Z,88.02
2022-09-22T00:26:47.447Z,87.96
2022-09-22T00:29:18.329Z,87.55
2022-09-22T00:31:46.353Z,87.86
2022-09-22T00:34:19.233Z,88.04
2022-09-22T00:36:46.527Z,88.13
2022-09-22T00:39:14.054Z,87.93
2022-09-22T00:41:45.633Z,88.56
2022-09-22T00:44:21.670Z,87.78
2022-09-22T00:46:53.753Z,87.75
2022-09-22T00:49:27.820Z,87.62
2022-09-22T00:51:54.353Z,87.91
2022-09-22T00:54:20.859Z,88.01
2022-09-22T00:56:57.202Z,87.71
2022-09-22T00:59:26.132Z,87.77
2022-09-22T01:01:53.107Z,87.61
2022-09-22T01:04:19.571Z,87.73
2022-09-22T01:06:46.476Z,88.09
2022-09-22T01:09:13.805Z,88.07
2022-09-22T01:11:41.696Z,88.44
2022-09-22T01:14:26.422Z,88.43
2022-09-22T01:17:09.485Z,88.21
2022-09-22T01:19:57.286Z,88.11
2022-09-22T01:23:05.530Z,88.19
2022-09-22T01:25:50.461Z,88.42
2022-09-22T01:28:50.838Z,88.57
2022-09-22T01:31:25.994Z,88.56
2022-09-22T01:34:06.247Z,88.38
2022-09-22T01:36:47.633Z,88.91
2022-09-22T01:39:20.320Z,89.13
2022-09-22T01:42:02.484Z,88.59
2022-09-22T01:44:42.236Z,88.30
2022-09-22T01:47:23.984Z,88.36
2022-09-22T01:49:58.961Z,88.52
2022-09-22T01:52:29.006Z,88.77
2022-09-22T01:55:03.879Z,88.65
2022-09-22T01:57:53.795Z,88.86
2022-09-22T02:00:20.995Z,89.18
2022-09-22T02:02:53.635Z,89.03
2022-09-22T02:05:47.489Z,88.66
2022-09-22T02:08:20.026Z,88.77
2022-09-22T02:10:48.657Z,88.76
2022-09-22T02:13:15.500Z,89.38
2022-09-22T02:16:02.187Z,89.13
2022-09-22T02:18:39.880Z,88.58
2022-09-22T02:21:06.693Z,88.29
2022-09-22T02:23:33.560Z,88.89
2022-09-22T02:26:03.911Z,88.98
2022-09-22T02:28:33.432Z,88.55
2022-09-22T02:31:19.429Z,88.62
2022-09-22T02:33:47.661Z,88.77
2022-09-22T02:36:35.944Z,88.61
2022-09-22T02:39:18.524Z,88.29
2022-09-22T02:42:06.734Z,88.53
2022-09-22T02:44:49.333Z,88.27
2022-09-22T02:47:28.787Z,88.16
2022-09-22T02:49:56.362Z,88.36
2022-09-22T02:52:24.314Z,88.71
2022-09-22T02:54:53.280Z,88.41
2022-09-22T02:57:20.404Z,88.32
2022-09-22T02:59:47.644Z,87.94
2022-09-22T03:02:14.136Z,87.65
2022-09-22T03:04:40.659Z,87.32
2022-09-22T03:07:07.267Z,87.71
2022-09-22T03:09:33.860Z,88.11
2022-09-22T03:12:00.434Z,88.42
2022-09-22T03:14:27.471Z,88.18
2022-09-22T03:16:54.081Z,88.29
2022-09-22T03:19:20.529Z,88.45
2022-09-22T03:21:46.960Z,88.05
2022-09-22T03:24:13.429Z,88.39
2022-09-22T03:26:40.151Z,88.60
2022-09-22T03:29:06.604Z,88.68
2022-09-22T03:31:32.981Z,88.35
2022-09-22T03:34:00.112Z,87.92
2022-09-22T03:36:27.201Z,88.20
2022-09-22T03:38:53.686Z,88.17
2022-09-22T03:41:20.486Z,87.90
2022-09-22T03:43:47.391Z,88.70
2022-09-22T03:46:14.260Z,88.50
2022-09-22T03:48:44.922Z,88.95
2022-09-22T03:51:12.125Z,88.74
2022-09-22T03:53:38.550Z,88.67
2022-09-22T03:56:11.250Z,88.62
2022-09-22T03:58:38.431Z,88.96
2022-09-22T04:01:06.179Z,88.89
2022-09-22T04:03:33.980Z,88.50
2022-09-22T04:06:02.791Z,88.31
2022-09-22T04:08:29.750Z,87.98
2022-09-22T04:10:57.747Z,88.28
2022-09-22T04:13:24.287Z,87.68
2022-09-22T04:15:50.700Z,87.70
2022-09-22T04:18:17.777Z,87.43
2022-09-22T04:20:44.389Z,87.19
2022-09-22T04:23:12.104Z,87.10
2022-09-22T04:25:38.594Z,87.84
2022-09-22T04:28:06.021Z,87.80
2022-09-22T04:30:33.308Z,87.86
2022-09-22T04:33:00.156Z,88.36
2022-09-22T04:35:28.383Z,88.33
2022-09-22T04:37:56.007Z,87.92
2022-09-22T04:40:24.154Z,87.96
2022-09-22T04:42:51.439Z,88.52
2022-09-22T04:45:18.608Z,88.35
2022-09-22T04:47:50.148Z,88.73
2022-09-22T04:50:18.664Z,88.85
2022-09-22T04:52:50.506Z,88.49
2022-09-22T04:55:18.196Z,88.49
2022-09-22T04:57:49.073Z,89.03
2022-09-22T05:00:16.847Z,89.09
2022-09-22T05:02:43.746Z,89.02
2022-09-22T05:05:11.448Z,89.37
2022-09-22T05:07:42.702Z,89.36
2022-09-22T05:10:11.201Z,89.54
2022-09-22T05:12:41.502Z,89.31
2022-09-22T05:15:09.206Z,88.85
2022-09-22T05:17:36.436Z,88.75
2022-09-22T05:20:05.109Z,88.69
2022-09-22T05:22:35.219Z,89.01
2022-09-22T05:25:04.501Z,89.14
2022-09-22T05:27:30.953Z,89.28
2022-09-22T05:29:57.568Z,88.96
2022-09-22T05:32:24.161Z,88.66
2022-09-22T05:34:50.587Z,89.08
2022-09-22T05:37:17.092Z,89.35
2022-09-22T05:39:44.762Z,89.00
2022-09-22T05:42:11.424Z,89.12
2022-09-22T05:44:37.858Z,88.65
2022-09-22T05:47:04.415Z,88.80
2022-09-22T05:49:30.857Z,88.99
2022-09-22T05:51:58.916Z,88.33
2022-09-22T05:54:25.395Z,88.76
2022-09-22T05:56:51.908Z,89.12
2022-09-22T05:59:18.721Z,89.27
2022-09-22T06:01:45.230Z,89.36
2022-09-22T06:04:11.767Z,89.21
2022-09-22T06:06:38.198Z,88.94
2022-09-22T06:09:04.712Z,88.72
2022-09-22T06:11:31.167Z,88.79
2022-09-22T06:13:57.656Z,88.91
2022-09-22T06:16:24.270Z,89.18
2022-09-22T06:18:50.843Z,89.28
2022-09-22T06:21:17.542Z,89.29
2022-09-22T06:23:44.340Z,88.98
2022-09-22T06:26:11.012Z,89.15
2022-09-22T06:28:37.497Z,89.22
2022-09-22T06:31:03.947Z,89.38
2022-09-22T06:33:30.832Z,89.64
2022-09-22T06:36:01.755Z,90.13
2022-09-22T06:38:31.873Z,89.80
2022-09-22T06:41:02.748Z,90.22
2022-09-22T06:43:29.219Z,90.09
2022-09-22T06:46:00.058Z,90.49
2022-09-22T06:48:27.544Z,90.68
2022-09-22T06:50:54.308Z,90.64
2022-09-22T06:53:24.738Z,90.82
2022-09-22T06:55:54.293Z,90.88
2022-09-22T06:58:22.125Z,90.98
2022-09-22T07:00:49.009Z,91.05
2022-09-22T07:03:24.262Z,91.25
2022-09-22T07:06:00.819Z,91.09
2022-09-22T07:08:32.817Z,91.54
2022-09-22T07:11:08.027Z,91.45
2022-09-22T07:13:39.453Z,91.17
2022-09-22T07:16:16.494Z,91.57
2022-09-22T07:18:48.948Z,91.46
2022-09-22T07:21:20.941Z,91.61
2022-09-22T07:23:49.952Z,91.90
2022-09-22T07:26:22.286Z,91.47
2022-09-22T07:28:53.597Z,91.55
2022-09-22T07:31:22.958Z,91.50
2022-09-22T07:33:54.294Z,91.71
2022-09-22T07:36:28.855Z,91.79
2022-09-22T07:38:57.782Z,91.20
2022-09-22T07:41:30.264Z,91.08
2022-09-22T07:44:19.199Z,90.86
2022-09-22T07:46:47.743Z,90.94
2022-09-22T07:49:22.241Z,91.04
2022-09-22T07:51:49.717Z,90.73
2022-09-22T07:54:16.799Z,90.17
2022-09-22T07:56:44.415Z,90.28
2022-09-22T07:59:13.446Z,89.61
2022-09-22T08:01:44.150Z,89.17
2022-09-22T08:04:16.836Z,88.42
2022-09-22T08:06:48.698Z,86.79
2022-09-22T08:09:15.715Z,86.62
2022-09-22T08:11:48.436Z,85.34
2022-09-22T08:14:21.394Z,82.24
2022-09-22T08:16:51.257Z,81.19
2022-09-22T08:19:18.561Z,82.07
2022-09-22T08:21:49.140Z,82.08
2022-09-22T08:24:21.472Z,81.92
2022-09-22T08:26:52.662Z,82.05
2022-09-22T08:29:20.736Z,81.77
2022-09-22T08:31:49.156Z,81.02
2022-09-22T08:34:18.288Z,80.75
2022-09-22T08:36:47.402Z,78.64
2022-09-22T08:39:15.909Z,78.43
2022-09-22T08:41:56.002Z,78.41
2022-09-22T08:44:37.328Z,78.89
2022-09-22T08:47:04.575Z,78.43
2022-09-22T08:49:56.068Z,77.66
2022-09-22T08:52:48.122Z,77.71
2022-09-22T08:55:23.364Z,77.60
2022-09-22T08:58:01.047Z,75.99
2022-09-22T09:00:42.929Z,73.43
2022-09-22T09:03:27.969Z,72.85
2022-09-22T09:06:00.289Z,72.21
2022-09-22T09:08:47.333Z,72.08
2022-09-22T09:11:51.308Z,72.57
2022-09-22T09:15:03.478Z,71.71
2022-09-22T09:17:32.463Z,72.11
2022-09-22T09:20:12.786Z,71.59
2022-09-22T09:22:48.588Z,71.41
2022-09-22T09:25:23.060Z,68.14
2022-09-22T09:27:57.048Z,68.28
2022-09-22T09:30:24.276Z,68.41
2022-09-22T09:33:00.624Z,68.31
2022-09-22T09:35:48.359Z,67.19
2022-09-22T09:38:18.055Z,65.58
2022-09-22T09:40:52.965Z,65.80
2022-09-22T09:43:23.507Z,63.87
2022-09-22T09:46:14.943Z,63.72
2022-09-22T09:49:05.540Z,61.28
2022-09-22T09:51:41.192Z,61.60
2022-09-22T09:54:14.437Z,61.11
2022-09-22T09:57:12.852Z,59.98
2022-09-22T10:00:00.165Z,59.09
2022-09-22T10:02:30.206Z,58.95
2022-09-22T10:05:08.195Z,57.26
2022-09-22T10:07:42.008Z,56.94
2022-09-22T10:10:34.628Z,56.55
2022-09-22T10:13:03.898Z,55.75
2022-09-22T10:15:35.623Z,55.08
2022-09-22T10:18:26.273Z,55.19
2022-09-22T10:23:58.208Z,53.09
2022-09-22T10:26:32.845Z,53.12
2022-09-22T10:29:18.888Z,51.08
2022-09-22T10:32:17.202Z,52.99
2022-09-22T10:34:51.418Z,52.46
2022-09-22T10:37:28.823Z,50.58
2022-09-22T10:40:03.567Z,49.39
2022-09-22T10:42:52.868Z,50.26
2022-09-22T10:45:23.332Z,52.41
2022-09-22T10:47:59.215Z,54.82
2022-09-22T10:50:50.684Z,52.27
2022-09-22T10:53:39.449Z,51.46
2022-09-22T10:56:15.085Z,51.89
2022-09-22T10:59:02.982Z,52.14
2022-09-22T11:01:55.039Z,53.14
2022-09-22T11:04:40.578Z,52.62
2022-09-22T11:07:41.243Z,53.29
2022-09-22T11:10:51.577Z,53.26
2022-09-22T11:13:24.751Z,54.17
2022-09-22T11:16:13.274Z,54.08
2022-09-22T11:19:07.329Z,53.67
2022-09-22T11:21:52.141Z,54.10
2022-09-22T11:24:38.163Z,54.14
2022-09-22T11:27:10.045Z,54.37
2022-09-22T11:30:11.025Z,52.59
2022-09-22T11:32:49.741Z,53.19
2022-09-22T11:35:40.639Z,52.74
2022-09-22T11:38:51.810Z,51.77
2022-09-22T11:41:31.182Z,52.12
2022-09-22T11:44:20.316Z,50.90
2022-09-22T11:47:15.541Z,50.64
2022-09-22T11:50:17.279Z,50.49
2022-09-22T11:53:05.777Z,50.75
2022-09-22T11:56:13.052Z,50.75
2022-09-22T11:58:42.139Z,50.36
2022-09-22T12:01:21.966Z,50.90
2022-09-22T12:03:57.650Z,51.37
2022-09-22T12:06:30.345Z,51.56
2022-09-22T12:09:06.915Z,52.01
2022-09-22T12:11:36.728Z,51.98
2022-09-22T12:14:04.731Z,52.16
2022-09-22T12:16:41.957Z,52.10
2022-09-22T12:19:25.087Z,51.02
2022-09-22T12:22:05.404Z,51.67
2022-09-22T12:24:32.744Z,51.02
2022-09-22T12:27:11.325Z,49.24
2022-09-22T12:29:38.881Z,48.85
2022-09-22T12:32:05.966Z,48.43
2022-09-22T12:34:39.795Z,46.78
2022-09-22T12:37:19.303Z,45.94
2022-09-22T12:39:48.368Z,45.55
2022-09-22T12:42:34.651Z,44.53
2022-09-22T12:45:21.095Z,44.39
2022-09-22T12:47:53.922Z,43.41
2022-09-22T12:50:23.471Z,44.44
2022-09-22T12:52:50.729Z,45.03
2022-09-22T12:55:30.329Z,45.69
2022-09-22T12:58:02.524Z,44.83
2022-09-22T13:00:36.360Z,44.14
2022-09-22T13:03:24.712Z,43.43
2022-09-22T13:05:53.535Z,43.75
2022-09-22T13:08:31.125Z,43.60
2022-09-22T13:11:03.898Z,44.83
2022-09-22T13:13:40.492Z,45.01
2022-09-22T13:16:16.614Z,45.42
2022-09-22T13:18:44.858Z,45.07
2022-09-22T13:21:14.128Z,43.60
2022-09-22T13:23:59.055Z,43.31
2022-09-22T13:26:38.919Z,43.06
2022-09-22T13:29:14.713Z,43.25
2022-09-22T13:31:51.005Z,43.13
2022-09-22T13:34:33.224Z,42.44
2022-09-22T13:37:01.408Z,41.32
2022-09-22T13:39:33.942Z,42.26
2022-09-22T13:42:11.870Z,42.23
2022-09-22T13:44:41.908Z,42.14
2022-09-22T13:47:23.414Z,40.93
2022-09-22T13:49:54.936Z,41.46
2022-09-22T13:52:27.274Z,40.61
2022-09-22T13:55:08.520Z,41.75
2022-09-22T13:57:37.591Z,41.54
2022-09-22T14:00:08.626Z,39.98
2022-09-22T14:02:35.289Z,41.08
2022-09-22T14:05:08.143Z,40.49
2022-09-22T14:07:49.446Z,41.13
2022-09-22T14:10:28.037Z,40.37
2022-09-22T14:12:56.228Z,40.32
2022-09-22T14:15:38.598Z,40.07
2022-09-22T14:18:25.995Z,39.10
2022-09-22T14:20:56.293Z,38.96
2022-09-22T14:23:28.825Z,39.46
2022-09-22T14:25:59.095Z,39.81
2022-09-22T14:28:29.752Z,40.38
2022-09-22T14:30:57.517Z,40.12
2022-09-22T14:33:27.896Z,40.17
2022-09-22T14:36:02.964Z,40.12
2022-09-22T14:38:35.616Z,40.02
2022-09-22T14:41:21.627Z,40.15
2022-09-22T14:43:50.999Z,40.43
2022-09-22T14:46:43.239Z,41.28
2022-09-22T14:49:37.856Z,39.07
2022-09-22T14:52:14.981Z,40.50
2022-09-22T14:54:44.592Z,40.73
2022-09-22T14:57:15.437Z,40.02
2022-09-22T15:00:08.389Z,40.49
2022-09-22T15:02:40.348Z,41.95
2022-09-22T15:05:09.259Z,41.36
2022-09-22T15:07:39.514Z,41.63
2022-09-22T15:10:19.424Z,40.62
2022-09-22T15:12:49.517Z,42.13
2022-09-22T15:15:29.111Z,41.61
2022-09-22T15:18:16.236Z,41.52
2022-09-22T15:21:11.283Z,40.86
2022-09-22T15:23:45.212Z,41.17
2022-09-22T15:26:19.821Z,41.33
2022-09-22T15:28:50.942Z,41.25
2022-09-22T15:31:22.366Z,41.88
2022-09-22T15:33:49.350Z,41.42
2022-09-22T15:36:20.086Z,41.59
2022-09-22T15:38:47.697Z,41.66
2022-09-22T15:41:20.264Z,40.46
2022-09-22T15:43:47.595Z,40.47
2022-09-22T15:46:28.046Z,41.16
2022-09-22T15:49:24.771Z,40.63
2022-09-22T15:51:51.833Z,41.06
2022-09-22T15:54:21.766Z,41.04
2022-09-22T15:56:52.467Z,40.81
2022-09-22T15:59:22.911Z,41.51
2022-09-22T16:01:51.728Z,41.81
2022-09-22T16:04:19.682Z,42.13
2022-09-22T16:06:54.610Z,42.79
2022-09-22T16:09:21.411Z,42.70
2022-09-22T16:11:48.611Z,43.69
2022-09-22T16:14:15.305Z,44.11
2022-09-22T16:16:42.886Z,44.68
2022-09-22T16:19:09.996Z,45.07
2022-09-22T16:21:39.136Z,45.60
2022-09-22T16:24:08.568Z,45.75
2022-09-22T16:26:36.984Z,45.54
2022-09-22T16:29:04.982Z,45.17
2022-09-22T16:31:31.526Z,45.38
2022-09-22T16:34:01.577Z,45.36
2022-09-22T16:36:31.505Z,45.66
2022-09-22T16:38:59.001Z,45.90
2022-09-22T16:41:28.284Z,46.05
2022-09-22T16:43:56.866Z,46.76
2022-09-22T16:46:31.394Z,46.75
2022-09-22T16:49:06.014Z,46.74
2022-09-22T16:51:36.312Z,47.10
2022-09-22T16:54:05.522Z,47.23
2022-09-22T16:56:34.553Z,47.47
2022-09-22T16:59:01.620Z,47.53
2022-09-22T17:01:31.019Z,47.54
2022-09-22T17:04:00.486Z,48.16
2022-09-22T17:06:28.574Z,50.82
2022-09-22T17:09:00.206Z,51.43
2022-09-22T17:11:30.147Z,52.21
2022-09-22T17:14:03.525Z,52.99
2022-09-22T17:16:34.196Z,53.55
2022-09-22T17:19:04.599Z,54.32
2022-09-22T17:21:34.592Z,55.02
2022-09-22T17:24:02.568Z,55.21
2022-09-22T17:26:30.161Z,55.99
2022-09-22T17:28:59.656Z,56.59
2022-09-22T17:31:33.239Z,56.72
2022-09-22T17:34:00.097Z,56.99
2022-09-22T17:36:28.176Z,57.46
2022-09-22T17:39:04.051Z,58.12
2022-09-22T17:41:32.890Z,58.26
2022-09-22T17:44:04.418Z,58.72
2022-09-22T17:46:33.122Z,59.19
2022-09-22T17:49:19.093Z,59.92
2022-09-22T17:52:06.888Z,60.29
2022-09-22T17:54:57.534Z,60.68
2022-09-22T17:57:29.479Z,61.22
2022-09-22T17:59:57.838Z,62.07
2022-09-22T18:02:27.095Z,62.75
2022-09-22T18:04:54.369Z,63.16
2022-09-22T18:07:24.176Z,64.09
2022-09-22T18:09:51.960Z,64.72
2022-09-22T18:12:21.554Z,64.93
2022-09-22T18:14:50.466Z,65.95
2022-09-22T18:17:19.844Z,66.11
2022-09-22T18:19:47.701Z,66.75
2022-09-22T18:22:17.216Z,66.54
2022-09-22T18:24:44.359Z,66.40
2022-09-22T18:27:13.417Z,66.41
2022-09-22T18:29:39.825Z,66.31
2022-09-22T18:32:06.368Z,66.03
2022-09-22T18:34:32.841Z,66.17
2022-09-22T18:37:04.450Z,65.70
2022-09-22T18:39:31.255Z,66.38
2022-09-22T18:41:58.193Z,66.39
2022-09-22T18:44:29.015Z,66.27
2022-09-22T18:46:56.923Z,65.83
2022-09-22T18:49:23.931Z,66.15
2022-09-22T18:51:50.456Z,66.10
2022-09-22T18:54:19.527Z,66.14
2022-09-22T18:56:47.752Z,65.97
2022-09-22T18:59:24.448Z,66.36
2022-09-22T19:01:51.827Z,66.66
2022-09-22T19:04:21.264Z,66.66
2022-09-22T19:07:09.516Z,66.74
2022-09-22T19:09:36.814Z,67.42
2022-09-22T19:12:07.904Z,67.50
2022-09-22T19:14:39.669Z,67.60
2022-09-22T19:17:07.978Z,67.78
2022-09-22T19:19:37.044Z,67.81
2022-09-22T19:22:09.061Z,68.26
2022-09-22T19:24:37.142Z,68.65
2022-09-22T19:27:06.454Z,68.87
2022-09-22T19:29:33.476Z,68.94
2022-09-22T19:32:04.562Z,68.95
2022-09-22T19:34:31.476Z,69.66
2022-09-22T19:36:59.685Z,69.41
2022-09-22T19:39:26.742Z,69.86
2022-09-22T19:41:54.837Z,70.37
2022-09-22T19:44:22.659Z,70.10
2022-09-22T19:46:50.234Z,70.97
2022-09-22T19:49:18.016Z,71.59
2022-09-22T19:51:45.220Z,72.30
2022-09-22T19:54:12.002Z,73.19
2022-09-22T19:56:38.854Z,73.88
2022-09-22T19:59:09.018Z,74.14
2022-09-22T20:01:38.153Z,74.59
2022-09-22T20:04:05.836Z,75.19
2022-09-22T20:06:34.214Z,75.43
2022-09-22T20:09:03.820Z,76.29
2022-09-22T20:11:39.172Z,76.43
2022-09-22T20:14:27.040Z,76.84
2022-09-22T20:17:05.838Z,77.26
2022-09-22T20:19:34.758Z,77.94
2022-09-22T20:22:25.565Z,78.07
2022-09-22T20:24:54.869Z,77.96
2022-09-22T20:27:29.575Z,78.45
2022-09-22T20:29:57.628Z,78.53
2022-09-22T20:32:31.391Z,78.91
2022-09-22T20:34:58.224Z,79.53
2022-09-22T20:37:24.959Z,78.87
2022-09-22T20:39:52.081Z,79.85
2022-09-22T20:42:18.916Z,79.93
2022-09-22T20:44:46.800Z,79.73
2022-09-22T20:47:15.663Z,80.05
2022-09-22T20:49:43.376Z,80.01
2022-09-22T20:52:15.683Z,80.71
2022-09-22T20:54:47.153Z,80.21
2022-09-22T20:57:14.768Z,80.61
2022-09-22T20:59:42.472Z,80.41
2022-09-22T21:02:10.227Z,80.49
2022-09-22T21:04:36.697Z,80.55
2022-09-22T21:07:03.730Z,80.91
2022-09-22T21:09:48.811Z,81.13
2022-09-22T21:12:15.352Z,81.68
2022-09-22T21:14:45.714Z,81.99
2022-09-22T21:17:13.391Z,81.86
2022-09-22T21:19:40.099Z,81.85
2022-09-22T21:22:06.626Z,81.76
2022-09-22T21:24:34.081Z,82.22
2022-09-22T21:27:00.520Z,81.74
2022-09-22T21:29:29.685Z,81.65
2022-09-22T21:31:58.038Z,81.62
2022-09-22T21:34:24.803Z,82.08
2022-09-22T21:36:51.659Z,81.86
2022-09-22T21:39:19.004Z,82.02
2022-09-22T21:41:45.519Z,81.91
2022-09-22T21:44:12.274Z,81.83
2022-09-22T21:46:41.763Z,82.20
2022-09-22T21:49:09.133Z,82.39
2022-09-22T21:51:42.032Z,82.14
2022-09-22T21:54:12.918Z,82.79
2022-09-22T21:56:39.530Z,82.46
2022-09-22T21:59:05.989Z,83.21
2022-09-22T22:01:35.256Z,83.51
2022-09-22T22:04:03.320Z,83.26
2022-09-22T22:06:37.856Z,84.21
2022-09-22T22:09:06.951Z,84.24
2022-09-22T22:11:37.680Z,83.93
2022-09-22T22:14:07.043Z,83.96
2022-09-22T22:16:37.872Z,84.47
2022-09-22T22:19:09.963Z,84.56
2022-09-22T22:21:36.567Z,84.76
2022-09-22T22:24:28.383Z,85.06
2022-09-22T22:26:58.150Z,84.78
2022-09-22T22:29:31.578Z,84.86
2022-09-22T22:31:59.739Z,84.94
2022-09-22T22:34:26.383Z,84.69
2022-09-22T22:36:54.440Z,84.87
2022-09-22T22:39:20.935Z,85.01
2022-09-22T22:41:50.738Z,85.43
2022-09-22T22:44:18.261Z,85.11
2022-09-22T22:46:45.384Z,85.27
2022-09-22T22:49:12.380Z,85.51
2022-09-22T22:51:40.166Z,85.37
2022-09-22T22:54:06.675Z,85.36
2022-09-22T22:56:33.434Z,85.08
2022-09-22T22:59:00.426Z,85.28
2022-09-22T23:01:29.744Z,85.57
2022-09-22T23:04:04.613Z,85.67
2022-09-22T23:06:38.824Z,85.76
2022-09-22T23:09:08.226Z,85.93
2022-09-22T23:11:39.672Z,85.74
2022-09-22T23:14:08.493Z,85.62
2022-09-22T23:16:38.518Z,85.74
2022-09-22T23:19:07.756Z,86.03
2022-09-22T23:21:36.006Z,85.79
2022-09-22T23:24:03.471Z,85.71
2022-09-22T23:26:30.010Z,85.73
2022-09-22T23:28:59.507Z,86.35
2022-09-22T23:31:26.374Z,85.92
2022-09-22T23:33:53.758Z,86.37
2022-09-22T23:36:24.422Z,86.50
2022-09-22T23:39:03.535Z,86.13
2022-09-22T23:41:32.139Z,86.10
2022-09-22T23:43:59.343Z,86.11
2022-09-22T23:46:25.940Z,86.18
2022-09-22T23:48:52.415Z,85.51
2022-09-22T23:51:22.067Z,85.19
2022-09-22T23:53:49.121Z,85.02
2022-09-22T23:56:15.635Z,85.23
2022-09-22T23:58:42.227Z,85.19
